sensor_id;sensor_type;location;lat;lon;timestamp;temperature;humidity
14049;DHT22;7099;53.922;10.728;2024-03-23T00:54:18;7.80;99.90
14049;DHT22;7099;53.922;10.728;2024-03-23T00:58:22;7.70;99.90
14049;DHT22;7099;53.922;10.728;2024-03-23T01:02:27;7.70;99.90
14049;DHT22;7099;53.922;10.728;2024-03-23T01:06:31;7.70;99.90
14049;DHT22;7099;53.922;10.728;2024-03-23T01:10:35;7.70;99.90
14049;DHT22;7099;53.922;10.728;2024-03-23T01:14:40;7.70;99.90
14049;DHT22;7099;53.922;10.728;2024-03-23T01:18:44;7.60;99.90
14049;DHT22;7099;53.922;10.728;2024-03-23T01:22:49;7.60;99.90
14049;DHT22;7099;53.922;10.728;2024-03-23T01:26:53;7.60;99.90
14049;DHT22;7099;53.922;10.728;2024-03-23T01:30:57;7.60;99.90
14049;DHT22;7099;53.922;10.728;2024-03-23T01:35:02;7.50;99.90
14049;DHT22;7099;53.922;10.728;2024-03-23T01:39:07;7.50;99.90
14049;DHT22;7099;53.922;10.728;2024-03-23T01:43:13;7.50;99.90
14049;DHT22;7099;53.922;10.728;2024-03-23T01:47:17;7.50;99.90
14049;DHT22;7099;53.922;10.728;2024-03-23T01:51:22;7.50;99.90
14049;DHT22;7099;53.922;10.728;2024-03-23T01:55:27;7.50;99.90
14049;DHT22;7099;53.922;10.728;2024-03-23T01:59:32;7.50;99.90
14049;DHT22;7099;53.922;10.728;2024-03-23T02:03:37;7.40;99.90
14049;DHT22;7099;53.922;10.728;2024-03-23T02:07:42;7.40;99.90
14049;DHT22;7099;53.922;10.728;2024-03-23T02:11:47;7.40;99.90
14049;DHT22;7099;53.922;10.728;2024-03-23T02:15:51;7.30;99.90
14049;DHT22;7099;53.922;10.728;2024-03-23T02:19:56;7.40;99.90
14049;DHT22;7099;53.922;10.728;2024-03-23T02:24:00;7.30;99.90
14049;DHT22;7099;53.922;10.728;2024-03-23T02:28:05;7.30;99.90
14049;DHT22;7099;53.922;10.728;2024-03-23T02:32:09;7.30;99.90
14049;DHT22;7099;53.922;10.728;2024-03-23T02:36:14;7.20;99.90
14049;DHT22;7099;53.922;10.728;2024-03-23T02:40:19;7.10;99.90
14049;DHT22;7099;53.922;10.728;2024-03-23T02:44:24;7.10;99.90
14049;DHT22;7099;53.922;10.728;2024-03-23T02:48:29;7.10;99.90
14049;DHT22;7099;53.922;10.728;2024-03-23T02:52:34;7.00;99.90
14049;DHT22;7099;53.922;10.728;2024-03-23T02:56:39;7.00;99.90
14049;DHT22;7099;53.922;10.728;2024-03-23T03:00:44;7.00;99.90
14049;DHT22;7099;53.922;10.728;2024-03-23T03:04:48;6.90;99.90
14049;DHT22;7099;53.922;10.728;2024-03-23T03:08:53;6.90;99.90
14049;DHT22;7099;53.922;10.728;2024-03-23T03:12:57;6.80;99.90
14049;DHT22;7099;53.922;10.728;2024-03-23T03:17:02;6.80;99.90
14049;DHT22;7099;53.922;10.728;2024-03-23T03:21:06;6.70;99.90
14049;DHT22;7099;53.922;10.728;2024-03-23T03:25:14;6.70;99.90
14049;DHT22;7099;53.922;10.728;2024-03-23T03:29:19;6.60;99.90
14049;DHT22;7099;53.922;10.728;2024-03-23T03:33:24;6.50;99.90
14049;DHT22;7099;53.922;10.728;2024-03-23T03:37:28;6.50;99.90
14049;DHT22;7099;53.922;10.728;2024-03-23T03:41:33;6.50;99.90
14049;DHT22;7099;53.922;10.728;2024-03-23T03:45:38;6.50;99.90
14049;DHT22;7099;53.922;10.728;2024-03-23T03:49:42;6.40;99.90
14049;DHT22;7099;53.922;10.728;2024-03-23T03:53:47;6.40;99.90
14049;DHT22;7099;53.922;10.728;2024-03-23T03:57:51;6.30;99.90
14049;DHT22;7099;53.922;10.728;2024-03-23T04:01:56;6.30;99.90
14049;DHT22;7099;53.922;10.728;2024-03-23T04:06:00;6.30;99.90
14049;DHT22;7099;53.922;10.728;2024-03-23T04:10:06;6.20;99.90
14049;DHT22;7099;53.922;10.728;2024-03-23T04:14:12;6.10;99.90
14049;DHT22;7099;53.922;10.728;2024-03-23T04:18:16;6.10;99.90
14049;DHT22;7099;53.922;10.728;2024-03-23T04:22:20;6.00;99.90
14049;DHT22;7099;53.922;10.728;2024-03-23T04:26:25;6.00;99.90
14049;DHT22;7099;53.922;10.728;2024-03-23T04:30:29;6.00;99.90
14049;DHT22;7099;53.922;10.728;2024-03-23T04:34:35;6.00;99.90
14049;DHT22;7099;53.922;10.728;2024-03-23T04:38:40;6.00;99.90
14049;DHT22;7099;53.922;10.728;2024-03-23T04:42:45;5.90;99.90
14049;DHT22;7099;53.922;10.728;2024-03-23T04:46:50;5.90;99.90
14049;DHT22;7099;53.922;10.728;2024-03-23T04:50:55;5.90;99.90
14049;DHT22;7099;53.922;10.728;2024-03-23T04:55:01;5.90;99.90
14049;DHT22;7099;53.922;10.728;2024-03-23T04:59:06;5.90;99.90
14049;DHT22;7099;53.922;10.728;2024-03-23T05:03:11;5.80;99.90
14049;DHT22;7099;53.922;10.728;2024-03-23T05:07:15;5.70;99.90
14049;DHT22;7099;53.922;10.728;2024-03-23T05:11:20;5.70;99.90
14049;DHT22;7099;53.922;10.728;2024-03-23T05:15:24;5.60;99.90
14049;DHT22;7099;53.922;10.728;2024-03-23T05:19:29;5.70;99.90
14049;DHT22;7099;53.922;10.728;2024-03-23T05:23:34;5.60;99.90
14049;DHT22;7099;53.922;10.728;2024-03-23T05:27:39;5.60;99.90
14049;DHT22;7099;53.922;10.728;2024-03-23T05:31:44;5.60;99.90
14049;DHT22;7099;53.922;10.728;2024-03-23T05:36:00;5.60;99.90
14049;DHT22;7099;53.922;10.728;2024-03-23T05:40:05;5.60;99.90
14049;DHT22;7099;53.922;10.728;2024-03-23T05:44:12;5.60;99.90
14049;DHT22;7099;53.922;10.728;2024-03-23T05:48:17;5.70;99.90
14049;DHT22;7099;53.922;10.728;2024-03-23T05:52:21;5.70;99.90
14049;DHT22;7099;53.922;10.728;2024-03-23T05:56:26;5.60;99.90
14049;DHT22;7099;53.922;10.728;2024-03-23T06:00:30;5.70;99.90
14049;DHT22;7099;53.922;10.728;2024-03-23T06:04:35;5.70;99.90
14049;DHT22;7099;53.922;10.728;2024-03-23T06:08:39;5.70;99.90
14049;DHT22;7099;53.922;10.728;2024-03-23T06:12:46;5.80;99.90
14049;DHT22;7099;53.922;10.728;2024-03-23T06:16:50;5.80;99.90
14049;DHT22;7099;53.922;10.728;2024-03-23T06:20:55;5.80;99.90
14049;DHT22;7099;53.922;10.728;2024-03-23T06:24:59;5.90;99.90
14049;DHT22;7099;53.922;10.728;2024-03-23T06:29:04;5.90;99.90
14049;DHT22;7099;53.922;10.728;2024-03-23T06:33:09;6.00;99.90
14049;DHT22;7099;53.922;10.728;2024-03-23T06:37:14;6.00;99.90
14049;DHT22;7099;53.922;10.728;2024-03-23T06:41:19;6.10;99.90
14049;DHT22;7099;53.922;10.728;2024-03-23T06:45:23;6.10;99.90
14049;DHT22;7099;53.922;10.728;2024-03-23T06:49:29;6.20;99.90
14049;DHT22;7099;53.922;10.728;2024-03-23T06:53:33;6.30;99.90
14049;DHT22;7099;53.922;10.728;2024-03-23T06:57:38;6.40;99.90
14049;DHT22;7099;53.922;10.728;2024-03-23T07:01:42;6.40;99.90
14049;DHT22;7099;53.922;10.728;2024-03-23T07:05:47;6.50;99.90
14049;DHT22;7099;53.922;10.728;2024-03-23T07:09:51;6.70;99.90
14049;DHT22;7099;53.922;10.728;2024-03-23T07:13:56;6.80;99.90
14049;DHT22;7099;53.922;10.728;2024-03-23T07:18:01;6.90;99.90
14049;DHT22;7099;53.922;10.728;2024-03-23T07:22:05;7.00;99.90
14049;DHT22;7099;53.922;10.728;2024-03-23T07:26:10;7.00;99.90
14049;DHT22;7099;53.922;10.728;2024-03-23T07:30:15;7.10;99.90
14049;DHT22;7099;53.922;10.728;2024-03-23T07:34:19;7.10;99.90
14049;DHT22;7099;53.922;10.728;2024-03-23T07:38:24;7.20;99.90
14049;DHT22;7099;53.922;10.728;2024-03-23T07:42:29;7.30;99.90
14049;DHT22;7099;53.922;10.728;2024-03-23T07:46:33;7.40;99.90
14049;DHT22;7099;53.922;10.728;2024-03-23T07:50:38;7.50;99.90
14049;DHT22;7099;53.922;10.728;2024-03-23T07:54:42;7.50;99.90
14049;DHT22;7099;53.922;10.728;2024-03-23T07:58:47;7.60;99.90
14049;DHT22;7099;53.922;10.728;2024-03-23T08:02:52;7.70;99.90
14049;DHT22;7099;53.922;10.728;2024-03-23T08:06:56;7.80;99.90
14049;DHT22;7099;53.922;10.728;2024-03-23T08:11:01;7.90;99.90
14049;DHT22;7099;53.922;10.728;2024-03-23T08:15:06;8.00;99.90
14049;DHT22;7099;53.922;10.728;2024-03-23T08:19:11;8.20;99.90
14049;DHT22;7099;53.922;10.728;2024-03-23T08:23:15;8.30;99.90
14049;DHT22;7099;53.922;10.728;2024-03-23T08:27:20;8.30;99.90
14049;DHT22;7099;53.922;10.728;2024-03-23T08:31:24;8.40;99.90
14049;DHT22;7099;53.922;10.728;2024-03-23T08:35:29;8.50;99.90
14049;DHT22;7099;53.922;10.728;2024-03-23T08:39:33;8.60;99.90
14049;DHT22;7099;53.922;10.728;2024-03-23T08:43:41;8.70;99.90
14049;DHT22;7099;53.922;10.728;2024-03-23T08:47:46;8.70;99.90
14049;DHT22;7099;53.922;10.728;2024-03-23T08:51:50;8.90;99.90
14049;DHT22;7099;53.922;10.728;2024-03-23T08:56:00;9.00;99.90
14049;DHT22;7099;53.922;10.728;2024-03-23T09:00:05;9.10;99.90
14049;DHT22;7099;53.922;10.728;2024-03-23T09:04:12;9.20;99.90
14049;DHT22;7099;53.922;10.728;2024-03-23T09:08:17;9.30;99.90
14049;DHT22;7099;53.922;10.728;2024-03-23T09:12:22;9.30;99.90
14049;DHT22;7099;53.922;10.728;2024-03-23T09:16:27;9.40;99.90
14049;DHT22;7099;53.922;10.728;2024-03-23T09:20:35;9.50;99.90
14049;DHT22;7099;53.922;10.728;2024-03-23T09:24:39;9.60;99.90
14049;DHT22;7099;53.922;10.728;2024-03-23T09:28:43;9.70;99.90
14049;DHT22;7099;53.922;10.728;2024-03-23T09:32:48;9.90;99.90
14049;DHT22;7099;53.922;10.728;2024-03-23T09:36:53;10.00;99.90
14049;DHT22;7099;53.922;10.728;2024-03-23T09:40:57;10.10;99.90
14049;DHT22;7099;53.922;10.728;2024-03-23T09:45:02;10.30;99.90
14049;DHT22;7099;53.922;10.728;2024-03-23T09:49:09;10.50;99.90
14049;DHT22;7099;53.922;10.728;2024-03-23T09:53:14;10.70;99.90
14049;DHT22;7099;53.922;10.728;2024-03-23T09:57:19;10.90;99.90
14049;DHT22;7099;53.922;10.728;2024-03-23T10:01:23;11.10;99.90
14049;DHT22;7099;53.922;10.728;2024-03-23T10:05:28;11.20;99.00
14049;DHT22;7099;53.922;10.728;2024-03-23T10:09:33;11.30;98.40
14049;DHT22;7099;53.922;10.728;2024-03-23T10:13:41;11.50;98.40
14049;DHT22;7099;53.922;10.728;2024-03-23T10:17:47;11.60;96.70
14049;DHT22;7099;53.922;10.728;2024-03-23T10:21:52;11.40;96.10
14049;DHT22;7099;53.922;10.728;2024-03-23T10:26:18;11.30;96.70
14049;DHT22;7099;53.922;10.728;2024-03-23T10:30:27;11.20;93.80
14049;DHT22;7099;53.922;10.728;2024-03-23T10:34:32;11.20;95.30
14049;DHT22;7099;53.922;10.728;2024-03-23T10:38:36;11.30;95.10
14049;DHT22;7099;53.922;10.728;2024-03-23T10:42:42;11.40;94.90
14049;DHT22;7099;53.922;10.728;2024-03-23T10:46:47;11.40;93.30
14049;DHT22;7099;53.922;10.728;2024-03-23T10:50:52;11.50;93.80
14049;DHT22;7099;53.922;10.728;2024-03-23T10:54:57;11.60;93.20
14049;DHT22;7099;53.922;10.728;2024-03-23T10:59:04;11.50;94.40
14049;DHT22;7099;53.922;10.728;2024-03-23T11:07:35;11.70;92.50
14049;DHT22;7099;53.922;10.728;2024-03-23T11:11:40;11.50;93.30
14049;DHT22;7099;53.922;10.728;2024-03-23T11:15:44;11.60;93.90
14049;DHT22;7099;53.922;10.728;2024-03-23T11:20:02;11.80;93.60
14049;DHT22;7099;53.922;10.728;2024-03-23T11:24:14;12.10;90.60
14049;DHT22;7099;53.922;10.728;2024-03-23T11:28:19;12.30;90.60
14049;DHT22;7099;53.922;10.728;2024-03-23T11:32:24;12.20;90.10
14049;DHT22;7099;53.922;10.728;2024-03-23T11:36:29;11.90;90.70
14049;DHT22;7099;53.922;10.728;2024-03-23T11:40:34;11.60;92.60
14049;DHT22;7099;53.922;10.728;2024-03-23T11:44:43;11.40;93.20
14049;DHT22;7099;53.922;10.728;2024-03-23T11:48:51;11.30;93.90
14049;DHT22;7099;53.922;10.728;2024-03-23T11:53:21;11.40;93.80
14049;DHT22;7099;53.922;10.728;2024-03-23T11:57:31;11.50;92.20
14049;DHT22;7099;53.922;10.728;2024-03-23T12:01:37;11.60;92.10
14049;DHT22;7099;53.922;10.728;2024-03-23T12:05:41;11.60;91.90
14049;DHT22;7099;53.922;10.728;2024-03-23T12:10:03;11.60;90.30
14049;DHT22;7099;53.922;10.728;2024-03-23T12:14:08;11.70;82.40
14049;DHT22;7099;53.922;10.728;2024-03-23T12:18:13;11.70;87.70
14049;DHT22;7099;53.922;10.728;2024-03-23T12:22:20;11.60;86.80
14049;DHT22;7099;53.922;10.728;2024-03-23T12:26:25;11.20;88.00
14049;DHT22;7099;53.922;10.728;2024-03-23T12:30:29;11.00;92.30
14049;DHT22;7099;53.922;10.728;2024-03-23T12:34:34;10.90;93.50
14049;DHT22;7099;53.922;10.728;2024-03-23T12:38:39;11.10;94.70
14049;DHT22;7099;53.922;10.728;2024-03-23T12:42:43;11.30;94.20
14049;DHT22;7099;53.922;10.728;2024-03-23T12:46:48;11.20;92.90
14049;DHT22;7099;53.922;10.728;2024-03-23T12:50:56;11.30;91.50
14049;DHT22;7099;53.922;10.728;2024-03-23T12:55:00;11.30;92.20
14049;DHT22;7099;53.922;10.728;2024-03-23T12:59:05;11.40;92.40
14049;DHT22;7099;53.922;10.728;2024-03-23T13:03:13;11.30;92.30
14049;DHT22;7099;53.922;10.728;2024-03-23T13:07:20;11.20;93.40
14049;DHT22;7099;53.922;10.728;2024-03-23T13:11:26;11.10;92.60
14049;DHT22;7099;53.922;10.728;2024-03-23T13:15:31;11.00;92.30
14049;DHT22;7099;53.922;10.728;2024-03-23T13:19:35;11.10;91.70
14049;DHT22;7099;53.922;10.728;2024-03-23T13:23:40;11.20;91.30
14049;DHT22;7099;53.922;10.728;2024-03-23T13:27:47;11.10;90.60
14049;DHT22;7099;53.922;10.728;2024-03-23T13:31:52;10.80;91.00
14049;DHT22;7099;53.922;10.728;2024-03-23T13:35:58;10.50;92.20
14049;DHT22;7099;53.922;10.728;2024-03-23T13:40:02;10.40;93.10
14049;DHT22;7099;53.922;10.728;2024-03-23T13:44:08;10.30;93.60
14049;DHT22;7099;53.922;10.728;2024-03-23T13:48:17;10.20;93.90
14049;DHT22;7099;53.922;10.728;2024-03-23T13:52:23;10.30;94.10
14049;DHT22;7099;53.922;10.728;2024-03-23T13:56:29;10.70;93.90
14049;DHT22;7099;53.922;10.728;2024-03-23T14:00:34;10.90;92.30
14049;DHT22;7099;53.922;10.728;2024-03-23T14:04:39;10.90;91.60
14049;DHT22;7099;53.922;10.728;2024-03-23T14:08:43;10.80;91.80
14049;DHT22;7099;53.922;10.728;2024-03-23T14:12:48;10.80;92.00
14049;DHT22;7099;53.922;10.728;2024-03-23T14:16:52;11.10;91.20
14049;DHT22;7099;53.922;10.728;2024-03-23T14:21:00;11.20;90.30
14049;DHT22;7099;53.922;10.728;2024-03-23T14:25:05;10.90;90.70
14049;DHT22;7099;53.922;10.728;2024-03-23T14:29:10;10.60;91.10
14049;DHT22;7099;53.922;10.728;2024-03-23T14:33:16;10.30;91.90
14049;DHT22;7099;53.922;10.728;2024-03-23T14:37:21;10.30;91.80
14049;DHT22;7099;53.922;10.728;2024-03-23T14:41:25;10.80;90.30
14049;DHT22;7099;53.922;10.728;2024-03-23T14:45:30;11.30;89.10
14049;DHT22;7099;53.922;10.728;2024-03-23T14:49:34;11.50;86.40
14049;DHT22;7099;53.922;10.728;2024-03-23T14:53:41;11.70;83.60
14049;DHT22;7099;53.922;10.728;2024-03-23T14:57:49;11.70;82.80
14049;DHT22;7099;53.922;10.728;2024-03-23T15:01:55;11.90;85.50
14049;DHT22;7099;53.922;10.728;2024-03-23T15:06:00;11.80;86.20
14049;DHT22;7099;53.922;10.728;2024-03-23T15:10:07;11.40;86.20
14049;DHT22;7099;53.922;10.728;2024-03-23T15:14:12;11.30;89.70
14049;DHT22;7099;53.922;10.728;2024-03-23T15:18:16;11.30;90.00
14049;DHT22;7099;53.922;10.728;2024-03-23T15:22:29;11.50;90.00
14049;DHT22;7099;53.922;10.728;2024-03-23T15:26:33;11.70;90.00
14049;DHT22;7099;53.922;10.728;2024-03-23T15:30:38;11.80;88.70
14049;DHT22;7099;53.922;10.728;2024-03-23T15:34:42;11.70;85.80
14049;DHT22;7099;53.922;10.728;2024-03-23T15:38:47;11.60;87.00
14049;DHT22;7099;53.922;10.728;2024-03-23T15:42:53;11.80;86.90
14049;DHT22;7099;53.922;10.728;2024-03-23T15:46:57;11.80;87.00
14049;DHT22;7099;53.922;10.728;2024-03-23T15:51:03;11.40;86.90
14049;DHT22;7099;53.922;10.728;2024-03-23T15:55:08;11.40;89.30
14049;DHT22;7099;53.922;10.728;2024-03-23T15:59:14;11.50;88.70
14049;DHT22;7099;53.922;10.728;2024-03-23T16:03:18;11.70;88.60
14049;DHT22;7099;53.922;10.728;2024-03-23T16:07:24;11.70;87.80
14049;DHT22;7099;53.922;10.728;2024-03-23T16:11:28;11.80;87.40
14049;DHT22;7099;53.922;10.728;2024-03-23T16:15:33;11.80;86.70
14049;DHT22;7099;53.922;10.728;2024-03-23T16:19:38;11.70;87.90
14049;DHT22;7099;53.922;10.728;2024-03-23T16:23:42;11.70;89.70
14049;DHT22;7099;53.922;10.728;2024-03-23T16:27:50;11.70;89.30
14049;DHT22;7099;53.922;10.728;2024-03-23T16:31:55;11.50;89.90
14049;DHT22;7099;53.922;10.728;2024-03-23T16:40:09;11.00;90.20
14049;DHT22;7099;53.922;10.728;2024-03-23T16:44:15;10.80;91.20
14049;DHT22;7099;53.922;10.728;2024-03-23T16:48:21;10.60;91.20
14049;DHT22;7099;53.922;10.728;2024-03-23T16:52:27;10.50;92.00
14049;DHT22;7099;53.922;10.728;2024-03-23T16:56:32;10.40;92.20
14049;DHT22;7099;53.922;10.728;2024-03-23T17:00:36;10.30;92.50
14049;DHT22;7099;53.922;10.728;2024-03-23T17:04:41;10.10;92.80
14049;DHT22;7099;53.922;10.728;2024-03-23T17:08:46;10.10;93.50
14049;DHT22;7099;53.922;10.728;2024-03-23T17:12:54;9.90;94.00
14049;DHT22;7099;53.922;10.728;2024-03-23T17:16:58;9.60;94.50
14049;DHT22;7099;53.922;10.728;2024-03-23T17:21:03;9.40;95.20
14049;DHT22;7099;53.922;10.728;2024-03-23T17:25:08;9.30;95.80
14049;DHT22;7099;53.922;10.728;2024-03-23T17:29:12;9.20;96.30
14049;DHT22;7099;53.922;10.728;2024-03-23T17:33:18;9.10;96.80
14049;DHT22;7099;53.922;10.728;2024-03-23T17:37:24;9.00;97.10
14049;DHT22;7099;53.922;10.728;2024-03-23T17:41:28;8.80;97.40
14049;DHT22;7099;53.922;10.728;2024-03-23T17:45:33;8.70;97.70
14049;DHT22;7099;53.922;10.728;2024-03-23T17:49:37;8.60;98.00
14049;DHT22;7099;53.922;10.728;2024-03-23T17:53:42;8.50;98.40
14049;DHT22;7099;53.922;10.728;2024-03-23T17:57:47;8.30;98.90
14049;DHT22;7099;53.922;10.728;2024-03-23T18:01:52;8.20;99.30
14049;DHT22;7099;53.922;10.728;2024-03-23T18:05:56;8.00;99.40
14049;DHT22;7099;53.922;10.728;2024-03-23T18:10:01;8.00;99.50
14049;DHT22;7099;53.922;10.728;2024-03-23T18:14:06;7.90;99.40
14049;DHT22;7099;53.922;10.728;2024-03-23T18:18:10;7.80;99.50
14049;DHT22;7099;53.922;10.728;2024-03-23T18:22:15;7.80;99.50
14049;DHT22;7099;53.922;10.728;2024-03-23T18:26:19;7.60;99.50
14049;DHT22;7099;53.922;10.728;2024-03-23T18:30:24;7.60;99.70
14049;DHT22;7099;53.922;10.728;2024-03-23T18:34:28;7.50;99.70
14049;DHT22;7099;53.922;10.728;2024-03-23T18:38:33;7.50;99.80
14049;DHT22;7099;53.922;10.728;2024-03-23T18:42:38;7.40;99.90
14049;DHT22;7099;53.922;10.728;2024-03-23T18:46:43;7.30;99.90
14049;DHT22;7099;53.922;10.728;2024-03-23T18:50:48;7.20;99.90
14049;DHT22;7099;53.922;10.728;2024-03-23T18:54:52;7.10;99.90
14049;DHT22;7099;53.922;10.728;2024-03-23T18:58:58;7.10;99.90
14049;DHT22;7099;53.922;10.728;2024-03-23T19:03:03;7.00;99.90
14049;DHT22;7099;53.922;10.728;2024-03-23T19:07:07;6.90;99.90
14049;DHT22;7099;53.922;10.728;2024-03-23T19:11:12;6.90;99.90
14049;DHT22;7099;53.922;10.728;2024-03-23T19:15:17;6.80;99.90
14049;DHT22;7099;53.922;10.728;2024-03-23T19:19:21;6.80;99.90
14049;DHT22;7099;53.922;10.728;2024-03-23T19:23:27;6.70;99.90
14049;DHT22;7099;53.922;10.728;2024-03-23T19:27:37;6.70;99.90
14049;DHT22;7099;53.922;10.728;2024-03-23T19:31:42;6.60;99.90
14049;DHT22;7099;53.922;10.728;2024-03-23T19:35:56;6.50;99.90
14049;DHT22;7099;53.922;10.728;2024-03-23T19:40:01;6.50;99.90
14049;DHT22;7099;53.922;10.728;2024-03-23T19:44:07;6.50;99.90
14049;DHT22;7099;53.922;10.728;2024-03-23T19:48:12;6.50;99.90
14049;DHT22;7099;53.922;10.728;2024-03-23T19:52:17;6.50;99.90
14049;DHT22;7099;53.922;10.728;2024-03-23T19:56:22;6.40;99.90
14049;DHT22;7099;53.922;10.728;2024-03-23T20:00:26;6.40;99.90
14049;DHT22;7099;53.922;10.728;2024-03-23T20:04:31;6.30;99.90
14049;DHT22;7099;53.922;10.728;2024-03-23T20:08:35;6.20;99.90
14049;DHT22;7099;53.922;10.728;2024-03-23T20:12:40;6.20;99.90
14049;DHT22;7099;53.922;10.728;2024-03-23T20:16:44;6.10;99.90
14049;DHT22;7099;53.922;10.728;2024-03-23T20:20:49;6.10;99.90
14049;DHT22;7099;53.922;10.728;2024-03-23T20:24:53;6.10;99.90
14049;DHT22;7099;53.922;10.728;2024-03-23T20:28:58;6.00;99.90
14049;DHT22;7099;53.922;10.728;2024-03-23T20:33:02;6.00;99.90
14049;DHT22;7099;53.922;10.728;2024-03-23T20:37:07;5.90;99.90
14049;DHT22;7099;53.922;10.728;2024-03-23T20:41:12;5.90;99.90
14049;DHT22;7099;53.922;10.728;2024-03-23T20:45:17;5.80;99.90
14049;DHT22;7099;53.922;10.728;2024-03-23T20:49:21;5.80;99.90
14049;DHT22;7099;53.922;10.728;2024-03-23T20:53:26;5.80;99.90
14049;DHT22;7099;53.922;10.728;2024-03-23T20:57:31;5.80;99.90
14049;DHT22;7099;53.922;10.728;2024-03-23T21:01:36;5.70;99.90
14049;DHT22;7099;53.922;10.728;2024-03-23T21:05:41;5.70;99.90
14049;DHT22;7099;53.922;10.728;2024-03-23T21:09:46;5.70;99.90
14049;DHT22;7099;53.922;10.728;2024-03-23T21:13:51;5.70;99.90
14049;DHT22;7099;53.922;10.728;2024-03-23T21:17:56;5.70;99.90
14049;DHT22;7099;53.922;10.728;2024-03-23T21:22:01;5.70;99.90
14049;DHT22;7099;53.922;10.728;2024-03-23T21:26:07;5.70;99.90
14049;DHT22;7099;53.922;10.728;2024-03-23T21:30:13;5.70;99.90
14049;DHT22;7099;53.922;10.728;2024-03-23T21:34:19;5.70;99.90
14049;DHT22;7099;53.922;10.728;2024-03-23T21:38:23;5.70;99.90
14049;DHT22;7099;53.922;10.728;2024-03-23T21:42:28;5.70;99.90
14049;DHT22;7099;53.922;10.728;2024-03-23T21:46:33;5.60;99.90
14049;DHT22;7099;53.922;10.728;2024-03-23T21:50:37;5.60;99.90
14049;DHT22;7099;53.922;10.728;2024-03-23T21:54:42;5.60;99.90
14049;DHT22;7099;53.922;10.728;2024-03-23T21:58:46;5.60;99.90
14049;DHT22;7099;53.922;10.728;2024-03-23T22:02:51;5.60;99.90
14049;DHT22;7099;53.922;10.728;2024-03-23T22:06:55;5.60;99.90
14049;DHT22;7099;53.922;10.728;2024-03-23T22:11:00;5.60;99.90
14049;DHT22;7099;53.922;10.728;2024-03-23T22:15:05;5.60;99.90
14049;DHT22;7099;53.922;10.728;2024-03-23T22:19:10;5.60;99.90
14049;DHT22;7099;53.922;10.728;2024-03-23T22:23:15;5.60;99.90
14049;DHT22;7099;53.922;10.728;2024-03-23T22:27:19;5.60;99.90
14049;DHT22;7099;53.922;10.728;2024-03-23T22:31:24;5.60;99.90
14049;DHT22;7099;53.922;10.728;2024-03-23T22:35:28;5.70;99.90
14049;DHT22;7099;53.922;10.728;2024-03-23T22:39:33;5.60;99.90
14049;DHT22;7099;53.922;10.728;2024-03-23T22:43:37;5.60;99.90
14049;DHT22;7099;53.922;10.728;2024-03-23T22:47:42;5.60;99.90
14049;DHT22;7099;53.922;10.728;2024-03-23T22:51:47;5.60;99.90
14049;DHT22;7099;53.922;10.728;2024-03-23T22:55:53;5.50;99.90
14049;DHT22;7099;53.922;10.728;2024-03-23T22:59:58;5.50;99.90
14049;DHT22;7099;53.922;10.728;2024-03-23T23:04:02;5.40;99.90
14049;DHT22;7099;53.922;10.728;2024-03-23T23:08:08;5.40;99.90
14049;DHT22;7099;53.922;10.728;2024-03-23T23:12:15;5.30;99.90
14049;DHT22;7099;53.922;10.728;2024-03-23T23:16:19;5.30;99.90
14049;DHT22;7099;53.922;10.728;2024-03-23T23:20:24;5.20;99.90
14049;DHT22;7099;53.922;10.728;2024-03-23T23:24:28;5.20;99.90
14049;DHT22;7099;53.922;10.728;2024-03-23T23:28:33;5.10;99.90
14049;DHT22;7099;53.922;10.728;2024-03-23T23:32:37;5.10;99.90
14049;DHT22;7099;53.922;10.728;2024-03-23T23:36:42;5.00;99.90
14049;DHT22;7099;53.922;10.728;2024-03-23T23:40:46;5.00;99.90
14049;DHT22;7099;53.922;10.728;2024-03-23T23:44:51;5.00;99.90
14049;DHT22;7099;53.922;10.728;2024-03-23T23:48:55;4.90;99.90
14049;DHT22;7099;53.922;10.728;2024-03-23T23:53:00;4.90;99.90
14049;DHT22;7099;53.922;10.728;2024-03-23T23:57:05;4.90;99.90
